sensor_id;sensor_type;location;lat;lon;timestamp;temperature;humidity
9760;DHT22;4919;48.792;9.202;2023-02-01T00:00:48;4.80;99.90
9760;DHT22;4919;48.792;9.202;2023-02-01T00:03:34;4.70;99.90
9760;DHT22;4919;48.792;9.202;2023-02-01T00:06:18;4.60;99.90
9760;DHT22;4919;48.792;9.202;2023-02-01T00:09:04;4.70;99.90
9760;DHT22;4919;48.792;9.202;2023-02-01T00:11:48;4.50;99.90
9760;DHT22;4919;48.792;9.202;2023-02-01T00:14:33;4.50;99.90
9760;DHT22;4919;48.792;9.202;2023-02-01T00:17:18;4.70;99.90
9760;DHT22;4919;48.792;9.202;2023-02-01T00:20:03;4.60;99.90
9760;DHT22;4919;48.792;9.202;2023-02-01T00:22:48;4.90;99.90
9760;DHT22;4919;48.792;9.202;2023-02-01T00:25:33;4.60;99.90
9760;DHT22;4919;48.792;9.202;2023-02-01T00:28:18;4.70;99.90
9760;DHT22;4919;48.792;9.202;2023-02-01T00:31:04;4.70;99.90
9760;DHT22;4919;48.792;9.202;2023-02-01T00:33:48;4.60;99.90
9760;DHT22;4919;48.792;9.202;2023-02-01T00:36:33;4.60;99.90
9760;DHT22;4919;48.792;9.202;2023-02-01T00:39:18;4.70;99.90
9760;DHT22;4919;48.792;9.202;2023-02-01T00:42:03;4.70;99.90
9760;DHT22;4919;48.792;9.202;2023-02-01T00:44:48;4.70;99.90
9760;DHT22;4919;48.792;9.202;2023-02-01T00:47:33;4.70;99.90
9760;DHT22;4919;48.792;9.202;2023-02-01T00:50:17;4.70;99.90
9760;DHT22;4919;48.792;9.202;2023-02-01T00:53:02;4.60;99.90
9760;DHT22;4919;48.792;9.202;2023-02-01T00:55:48;4.50;99.90
9760;DHT22;4919;48.792;9.202;2023-02-01T00:58:33;4.60;99.90
9760;DHT22;4919;48.792;9.202;2023-02-01T01:01:21;4.50;99.90
9760;DHT22;4919;48.792;9.202;2023-02-01T01:04:06;4.50;99.90
9760;DHT22;4919;48.792;9.202;2023-02-01T01:06:51;4.50;99.90
9760;DHT22;4919;48.792;9.202;2023-02-01T01:09:35;4.40;99.90
9760;DHT22;4919;48.792;9.202;2023-02-01T01:12:20;4.40;99.90
9760;DHT22;4919;48.792;9.202;2023-02-01T01:15:06;4.40;99.90
9760;DHT22;4919;48.792;9.202;2023-02-01T01:17:51;4.30;99.90
9760;DHT22;4919;48.792;9.202;2023-02-01T01:20:37;4.30;99.90
9760;DHT22;4919;48.792;9.202;2023-02-01T01:23:23;4.40;99.90
9760;DHT22;4919;48.792;9.202;2023-02-01T01:26:12;4.40;99.90
9760;DHT22;4919;48.792;9.202;2023-02-01T01:28:58;4.30;99.90
9760;DHT22;4919;48.792;9.202;2023-02-01T01:31:43;4.30;99.90
9760;DHT22;4919;48.792;9.202;2023-02-01T01:34:28;4.40;99.90
9760;DHT22;4919;48.792;9.202;2023-02-01T01:37:13;4.50;99.90
9760;DHT22;4919;48.792;9.202;2023-02-01T01:39:58;4.60;99.90
9760;DHT22;4919;48.792;9.202;2023-02-01T01:42:43;4.40;99.90
9760;DHT22;4919;48.792;9.202;2023-02-01T01:45:31;4.40;99.90
9760;DHT22;4919;48.792;9.202;2023-02-01T01:48:27;4.60;99.90
9760;DHT22;4919;48.792;9.202;2023-02-01T01:51:14;4.50;99.90
9760;DHT22;4919;48.792;9.202;2023-02-01T01:57:15;4.50;99.90
9760;DHT22;4919;48.792;9.202;2023-02-01T02:00:12;4.60;99.90
9760;DHT22;4919;48.792;9.202;2023-02-01T02:03:00;4.70;99.90
9760;DHT22;4919;48.792;9.202;2023-02-01T02:05:49;4.60;99.90
9760;DHT22;4919;48.792;9.202;2023-02-01T02:08:34;4.60;99.90
9760;DHT22;4919;48.792;9.202;2023-02-01T02:11:19;4.60;99.90
9760;DHT22;4919;48.792;9.202;2023-02-01T02:14:05;4.60;99.90
9760;DHT22;4919;48.792;9.202;2023-02-01T02:17:04;4.60;99.90
9760;DHT22;4919;48.792;9.202;2023-02-01T02:20:12;4.60;99.90
9760;DHT22;4919;48.792;9.202;2023-02-01T02:35:59;4.60;99.90
9760;DHT22;4919;48.792;9.202;2023-02-01T02:41:32;4.50;99.90
9760;DHT22;4919;48.792;9.202;2023-02-01T02:45:17;4.50;99.90
9760;DHT22;4919;48.792;9.202;2023-02-01T02:47:46;4.50;99.90
9760;DHT22;4919;48.792;9.202;2023-02-01T02:50:42;4.50;99.90
9760;DHT22;4919;48.792;9.202;2023-02-01T02:53:45;4.50;99.90
9760;DHT22;4919;48.792;9.202;2023-02-01T02:56:32;4.50;99.90
9760;DHT22;4919;48.792;9.202;2023-02-01T02:59:21;4.60;99.90
9760;DHT22;4919;48.792;9.202;2023-02-01T03:02:07;4.60;99.90
9760;DHT22;4919;48.792;9.202;2023-02-01T03:04:53;4.60;99.90
9760;DHT22;4919;48.792;9.202;2023-02-01T03:08:08;4.50;99.90
9760;DHT22;4919;48.792;9.202;2023-02-01T03:11:01;4.60;99.90
9760;DHT22;4919;48.792;9.202;2023-02-01T03:13:57;4.60;99.90
9760;DHT22;4919;48.792;9.202;2023-02-01T03:16:51;4.70;99.90
9760;DHT22;4919;48.792;9.202;2023-02-01T03:19:46;4.70;99.90
9760;DHT22;4919;48.792;9.202;2023-02-01T03:22:33;4.70;99.90
9760;DHT22;4919;48.792;9.202;2023-02-01T03:25:27;4.70;99.90
9760;DHT22;4919;48.792;9.202;2023-02-01T03:28:15;4.70;99.90
9760;DHT22;4919;48.792;9.202;2023-02-01T03:31:02;4.60;99.90
9760;DHT22;4919;48.792;9.202;2023-02-01T03:33:47;4.60;99.90
9760;DHT22;4919;48.792;9.202;2023-02-01T03:42:55;4.70;99.90
9760;DHT22;4919;48.792;9.202;2023-02-01T03:45:49;4.70;99.90
9760;DHT22;4919;48.792;9.202;2023-02-01T03:48:36;4.80;99.90
9760;DHT22;4919;48.792;9.202;2023-02-01T03:51:23;4.70;99.90
9760;DHT22;4919;48.792;9.202;2023-02-01T03:54:12;4.70;99.90
9760;DHT22;4919;48.792;9.202;2023-02-01T03:57:00;4.70;99.90
9760;DHT22;4919;48.792;9.202;2023-02-01T03:59:46;4.90;99.90
9760;DHT22;4919;48.792;9.202;2023-02-01T04:02:31;4.80;99.90
9760;DHT22;4919;48.792;9.202;2023-02-01T04:05:16;4.80;99.90
9760;DHT22;4919;48.792;9.202;2023-02-01T04:08:01;4.70;99.90
9760;DHT22;4919;48.792;9.202;2023-02-01T04:10:46;4.90;99.90
9760;DHT22;4919;48.792;9.202;2023-02-01T04:13:31;4.80;99.90
9760;DHT22;4919;48.792;9.202;2023-02-01T04:16:16;4.90;99.90
9760;DHT22;4919;48.792;9.202;2023-02-01T04:19:01;4.80;99.90
9760;DHT22;4919;48.792;9.202;2023-02-01T04:21:46;4.90;99.90
9760;DHT22;4919;48.792;9.202;2023-02-01T04:24:31;4.90;99.90
9760;DHT22;4919;48.792;9.202;2023-02-01T04:27:16;4.90;99.90
9760;DHT22;4919;48.792;9.202;2023-02-01T04:30:01;4.90;99.90
9760;DHT22;4919;48.792;9.202;2023-02-01T04:32:45;5.00;99.90
9760;DHT22;4919;48.792;9.202;2023-02-01T04:35:30;5.00;99.90
9760;DHT22;4919;48.792;9.202;2023-02-01T04:38:15;5.00;99.90
9760;DHT22;4919;48.792;9.202;2023-02-01T04:41:00;5.10;99.90
9760;DHT22;4919;48.792;9.202;2023-02-01T04:43:49;5.10;99.90
9760;DHT22;4919;48.792;9.202;2023-02-01T04:46:35;5.10;99.90
9760;DHT22;4919;48.792;9.202;2023-02-01T04:49:19;5.20;99.90
9760;DHT22;4919;48.792;9.202;2023-02-01T04:52:04;5.20;99.90
9760;DHT22;4919;48.792;9.202;2023-02-01T04:54:49;5.10;99.90
9760;DHT22;4919;48.792;9.202;2023-02-01T04:57:34;5.10;99.90
9760;DHT22;4919;48.792;9.202;2023-02-01T05:00:19;5.10;99.90
9760;DHT22;4919;48.792;9.202;2023-02-01T05:03:04;5.10;99.90
9760;DHT22;4919;48.792;9.202;2023-02-01T05:05:49;5.20;99.90
9760;DHT22;4919;48.792;9.202;2023-02-01T05:08:34;5.20;99.90
9760;DHT22;4919;48.792;9.202;2023-02-01T05:11:19;5.20;99.90
9760;DHT22;4919;48.792;9.202;2023-02-01T05:14:04;5.10;99.90
9760;DHT22;4919;48.792;9.202;2023-02-01T05:16:49;5.20;99.90
9760;DHT22;4919;48.792;9.202;2023-02-01T05:19:34;5.20;99.90
9760;DHT22;4919;48.792;9.202;2023-02-01T05:22:19;5.20;99.90
9760;DHT22;4919;48.792;9.202;2023-02-01T05:25:04;5.20;99.90
9760;DHT22;4919;48.792;9.202;2023-02-01T05:27:49;5.20;99.90
9760;DHT22;4919;48.792;9.202;2023-02-01T05:30:34;5.20;99.90
9760;DHT22;4919;48.792;9.202;2023-02-01T05:33:19;5.20;99.90
9760;DHT22;4919;48.792;9.202;2023-02-01T05:36:04;5.20;99.90
9760;DHT22;4919;48.792;9.202;2023-02-01T05:38:49;5.10;99.90
9760;DHT22;4919;48.792;9.202;2023-02-01T05:41:34;5.20;99.90
9760;DHT22;4919;48.792;9.202;2023-02-01T05:44:19;5.10;99.90
9760;DHT22;4919;48.792;9.202;2023-02-01T05:47:04;5.20;99.90
9760;DHT22;4919;48.792;9.202;2023-02-01T05:49:49;5.20;99.90
9760;DHT22;4919;48.792;9.202;2023-02-01T05:52:34;5.20;99.90
9760;DHT22;4919;48.792;9.202;2023-02-01T05:55:19;5.20;99.90
9760;DHT22;4919;48.792;9.202;2023-02-01T05:58:05;5.20;99.90
9760;DHT22;4919;48.792;9.202;2023-02-01T06:00:50;5.20;99.90
9760;DHT22;4919;48.792;9.202;2023-02-01T06:03:34;5.20;99.90
9760;DHT22;4919;48.792;9.202;2023-02-01T06:06:19;5.20;99.90
9760;DHT22;4919;48.792;9.202;2023-02-01T06:09:04;5.20;99.90
9760;DHT22;4919;48.792;9.202;2023-02-01T06:11:49;5.20;99.90
9760;DHT22;4919;48.792;9.202;2023-02-01T06:14:34;5.10;99.90
9760;DHT22;4919;48.792;9.202;2023-02-01T06:17:19;5.30;99.90
9760;DHT22;4919;48.792;9.202;2023-02-01T06:20:04;5.20;99.90
9760;DHT22;4919;48.792;9.202;2023-02-01T06:22:49;5.20;99.90
9760;DHT22;4919;48.792;9.202;2023-02-01T06:25:34;5.10;99.90
9760;DHT22;4919;48.792;9.202;2023-02-01T06:28:19;5.10;99.90
9760;DHT22;4919;48.792;9.202;2023-02-01T06:31:05;5.10;99.90
9760;DHT22;4919;48.792;9.202;2023-02-01T06:33:51;5.10;99.90
9760;DHT22;4919;48.792;9.202;2023-02-01T06:36:36;5.10;99.90
9760;DHT22;4919;48.792;9.202;2023-02-01T06:39:21;5.10;99.90
9760;DHT22;4919;48.792;9.202;2023-02-01T06:42:06;5.10;99.90
9760;DHT22;4919;48.792;9.202;2023-02-01T06:44:50;5.10;99.90
9760;DHT22;4919;48.792;9.202;2023-02-01T06:47:35;5.10;99.90
9760;DHT22;4919;48.792;9.202;2023-02-01T06:50:20;5.10;99.90
9760;DHT22;4919;48.792;9.202;2023-02-01T06:53:05;5.10;99.90
9760;DHT22;4919;48.792;9.202;2023-02-01T06:55:54;5.00;99.90
9760;DHT22;4919;48.792;9.202;2023-02-01T06:58:39;5.00;99.90
9760;DHT22;4919;48.792;9.202;2023-02-01T07:01:24;5.00;99.90
9760;DHT22;4919;48.792;9.202;2023-02-01T07:04:13;5.00;99.90
9760;DHT22;4919;48.792;9.202;2023-02-01T07:06:58;5.10;99.90
9760;DHT22;4919;48.792;9.202;2023-02-01T07:09:43;5.10;99.90
9760;DHT22;4919;48.792;9.202;2023-02-01T07:12:27;5.00;99.90
9760;DHT22;4919;48.792;9.202;2023-02-01T07:15:12;5.10;99.90
9760;DHT22;4919;48.792;9.202;2023-02-01T07:17:57;5.20;99.90
9760;DHT22;4919;48.792;9.202;2023-02-01T07:20:42;5.20;99.90
9760;DHT22;4919;48.792;9.202;2023-02-01T07:23:27;5.20;99.90
9760;DHT22;4919;48.792;9.202;2023-02-01T07:26:13;5.10;99.90
9760;DHT22;4919;48.792;9.202;2023-02-01T07:28:58;5.00;99.90
9760;DHT22;4919;48.792;9.202;2023-02-01T07:31:43;5.10;99.90
9760;DHT22;4919;48.792;9.202;2023-02-01T07:34:28;5.00;99.90
9760;DHT22;4919;48.792;9.202;2023-02-01T07:37:13;5.00;99.90
9760;DHT22;4919;48.792;9.202;2023-02-01T07:39:58;5.00;99.90
9760;DHT22;4919;48.792;9.202;2023-02-01T07:42:42;5.10;99.90
9760;DHT22;4919;48.792;9.202;2023-02-01T07:45:27;5.00;99.90
9760;DHT22;4919;48.792;9.202;2023-02-01T07:48:12;5.00;99.90
9760;DHT22;4919;48.792;9.202;2023-02-01T07:51:02;4.80;99.90
9760;DHT22;4919;48.792;9.202;2023-02-01T07:53:47;4.60;99.90
9760;DHT22;4919;48.792;9.202;2023-02-01T07:56:33;4.40;99.90
9760;DHT22;4919;48.792;9.202;2023-02-01T07:59:18;4.40;99.90
9760;DHT22;4919;48.792;9.202;2023-02-01T08:02:03;4.20;99.90
9760;DHT22;4919;48.792;9.202;2023-02-01T08:04:48;4.10;99.90
9760;DHT22;4919;48.792;9.202;2023-02-01T08:07:33;4.10;99.90
9760;DHT22;4919;48.792;9.202;2023-02-01T08:10:18;4.00;99.90
9760;DHT22;4919;48.792;9.202;2023-02-01T08:13:03;4.00;99.90
9760;DHT22;4919;48.792;9.202;2023-02-01T08:15:48;3.90;99.90
9760;DHT22;4919;48.792;9.202;2023-02-01T08:18:34;3.80;99.90
9760;DHT22;4919;48.792;9.202;2023-02-01T08:21:22;3.80;99.90
9760;DHT22;4919;48.792;9.202;2023-02-01T08:24:09;3.70;99.90
9760;DHT22;4919;48.792;9.202;2023-02-01T08:26:54;3.70;99.90
9760;DHT22;4919;48.792;9.202;2023-02-01T08:29:39;3.60;99.90
9760;DHT22;4919;48.792;9.202;2023-02-01T08:32:24;3.60;99.90
9760;DHT22;4919;48.792;9.202;2023-02-01T08:35:09;3.60;99.90
9760;DHT22;4919;48.792;9.202;2023-02-01T08:37:54;3.60;99.90
9760;DHT22;4919;48.792;9.202;2023-02-01T08:40:39;3.60;99.90
9760;DHT22;4919;48.792;9.202;2023-02-01T08:43:23;3.60;99.90
9760;DHT22;4919;48.792;9.202;2023-02-01T08:46:09;3.70;99.90
9760;DHT22;4919;48.792;9.202;2023-02-01T08:48:54;3.70;99.90
9760;DHT22;4919;48.792;9.202;2023-02-01T08:51:39;3.80;99.90
9760;DHT22;4919;48.792;9.202;2023-02-01T08:54:24;3.80;99.90
9760;DHT22;4919;48.792;9.202;2023-02-01T08:57:09;3.80;99.90
9760;DHT22;4919;48.792;9.202;2023-02-01T08:59:53;3.80;99.90
9760;DHT22;4919;48.792;9.202;2023-02-01T09:02:39;3.80;99.90
9760;DHT22;4919;48.792;9.202;2023-02-01T09:05:24;3.80;99.90
9760;DHT22;4919;48.792;9.202;2023-02-01T09:08:08;3.80;99.90
9760;DHT22;4919;48.792;9.202;2023-02-01T09:10:57;3.70;99.90
9760;DHT22;4919;48.792;9.202;2023-02-01T09:13:42;3.80;99.90
9760;DHT22;4919;48.792;9.202;2023-02-01T09:16:27;3.70;99.90
9760;DHT22;4919;48.792;9.202;2023-02-01T09:19:12;3.70;99.90
9760;DHT22;4919;48.792;9.202;2023-02-01T09:21:57;3.70;99.90
9760;DHT22;4919;48.792;9.202;2023-02-01T09:24:42;3.80;99.90
9760;DHT22;4919;48.792;9.202;2023-02-01T09:27:26;3.80;99.90
9760;DHT22;4919;48.792;9.202;2023-02-01T09:30:12;3.80;99.90
9760;DHT22;4919;48.792;9.202;2023-02-01T09:32:57;3.80;99.90
9760;DHT22;4919;48.792;9.202;2023-02-01T09:35:41;3.80;99.90
9760;DHT22;4919;48.792;9.202;2023-02-01T09:38:27;3.90;99.90
9760;DHT22;4919;48.792;9.202;2023-02-01T09:41:32;3.90;99.90
9760;DHT22;4919;48.792;9.202;2023-02-01T09:44:42;3.90;99.90
9760;DHT22;4919;48.792;9.202;2023-02-01T09:47:29;3.90;99.90
9760;DHT22;4919;48.792;9.202;2023-02-01T09:50:17;3.90;99.90
9760;DHT22;4919;48.792;9.202;2023-02-01T09:53:43;3.90;99.90
9760;DHT22;4919;48.792;9.202;2023-02-01T09:56:36;4.00;99.90
9760;DHT22;4919;48.792;9.202;2023-02-01T09:59:46;4.00;99.90
9760;DHT22;4919;48.792;9.202;2023-02-01T10:02:36;4.10;99.90
9760;DHT22;4919;48.792;9.202;2023-02-01T10:05:50;4.10;99.90
9760;DHT22;4919;48.792;9.202;2023-02-01T10:26:33;4.20;99.90
9760;DHT22;4919;48.792;9.202;2023-02-01T10:29:24;4.20;99.90
9760;DHT22;4919;48.792;9.202;2023-02-01T10:32:17;4.30;99.90
9760;DHT22;4919;48.792;9.202;2023-02-01T10:35:22;4.30;99.90
9760;DHT22;4919;48.792;9.202;2023-02-01T10:38:37;4.30;99.90
9760;DHT22;4919;48.792;9.202;2023-02-01T10:41:23;4.30;99.90
9760;DHT22;4919;48.792;9.202;2023-02-01T10:44:13;4.40;99.90
9760;DHT22;4919;48.792;9.202;2023-02-01T10:46:58;4.40;99.90
9760;DHT22;4919;48.792;9.202;2023-02-01T10:50:08;4.30;99.90
9760;DHT22;4919;48.792;9.202;2023-02-01T10:53:15;4.20;99.90
9760;DHT22;4919;48.792;9.202;2023-02-01T10:56:09;4.20;99.90
9760;DHT22;4919;48.792;9.202;2023-02-01T10:59:03;4.20;99.90
9760;DHT22;4919;48.792;9.202;2023-02-01T11:01:49;4.30;99.90
9760;DHT22;4919;48.792;9.202;2023-02-01T11:04:35;4.30;99.90
9760;DHT22;4919;48.792;9.202;2023-02-01T11:07:23;4.30;99.90
9760;DHT22;4919;48.792;9.202;2023-02-01T11:10:36;4.40;99.90
9760;DHT22;4919;48.792;9.202;2023-02-01T11:13:29;4.60;99.90
9760;DHT22;4919;48.792;9.202;2023-02-01T11:16:14;4.70;99.90
9760;DHT22;4919;48.792;9.202;2023-02-01T11:18:59;4.70;99.90
9760;DHT22;4919;48.792;9.202;2023-02-01T11:21:44;4.90;99.90
9760;DHT22;4919;48.792;9.202;2023-02-01T11:24:35;4.90;99.90
9760;DHT22;4919;48.792;9.202;2023-02-01T11:27:22;5.00;99.90
9760;DHT22;4919;48.792;9.202;2023-02-01T11:30:13;5.00;99.90
9760;DHT22;4919;48.792;9.202;2023-02-01T11:33:00;5.10;99.90
9760;DHT22;4919;48.792;9.202;2023-02-01T11:35:47;5.20;99.90
9760;DHT22;4919;48.792;9.202;2023-02-01T11:38:33;5.30;99.90
9760;DHT22;4919;48.792;9.202;2023-02-01T11:41:26;5.40;99.90
9760;DHT22;4919;48.792;9.202;2023-02-01T11:44:44;5.40;99.90
9760;DHT22;4919;48.792;9.202;2023-02-01T11:47:31;5.40;99.90
9760;DHT22;4919;48.792;9.202;2023-02-01T11:50:44;5.40;99.90
9760;DHT22;4919;48.792;9.202;2023-02-01T11:57:10;5.70;99.90
9760;DHT22;4919;48.792;9.202;2023-02-01T12:00:10;5.60;99.90
9760;DHT22;4919;48.792;9.202;2023-02-01T12:06:49;5.50;99.90
9760;DHT22;4919;48.792;9.202;2023-02-01T12:18:52;5.90;99.90
9760;DHT22;4919;48.792;9.202;2023-02-01T12:22:04;6.00;99.90
9760;DHT22;4919;48.792;9.202;2023-02-01T12:31:21;6.20;99.90
9760;DHT22;4919;48.792;9.202;2023-02-01T12:40:16;6.40;99.90
9760;DHT22;4919;48.792;9.202;2023-02-01T12:43:25;6.50;99.90
9760;DHT22;4919;48.792;9.202;2023-02-01T12:52:23;6.40;99.90
9760;DHT22;4919;48.792;9.202;2023-02-01T13:01:34;6.40;99.90
9760;DHT22;4919;48.792;9.202;2023-02-01T13:04:36;6.40;99.90
9760;DHT22;4919;48.792;9.202;2023-02-01T13:07:27;6.30;99.90
9760;DHT22;4919;48.792;9.202;2023-02-01T13:13:55;6.20;99.90
9760;DHT22;4919;48.792;9.202;2023-02-01T13:16:48;6.20;99.90
9760;DHT22;4919;48.792;9.202;2023-02-01T13:22:43;6.30;99.90
9760;DHT22;4919;48.792;9.202;2023-02-01T13:25:38;6.30;99.90
9760;DHT22;4919;48.792;9.202;2023-02-01T13:32:14;6.30;99.90
9760;DHT22;4919;48.792;9.202;2023-02-01T13:35:22;6.30;99.90
9760;DHT22;4919;48.792;9.202;2023-02-01T13:41:29;6.30;99.90
9760;DHT22;4919;48.792;9.202;2023-02-01T13:44:26;6.30;99.90
9760;DHT22;4919;48.792;9.202;2023-02-01T13:50:35;6.30;99.90
9760;DHT22;4919;48.792;9.202;2023-02-01T13:53:45;6.30;99.90
9760;DHT22;4919;48.792;9.202;2023-02-01T13:56:42;6.30;99.90
9760;DHT22;4919;48.792;9.202;2023-02-01T14:08:35;6.30;99.90
9760;DHT22;4919;48.792;9.202;2023-02-01T14:11:39;6.30;99.90
9760;DHT22;4919;48.792;9.202;2023-02-01T14:23:19;6.30;99.90
9760;DHT22;4919;48.792;9.202;2023-02-01T14:26:07;6.20;99.90
9760;DHT22;4919;48.792;9.202;2023-02-01T14:34:53;6.20;99.90
9760;DHT22;4919;48.792;9.202;2023-02-01T14:37:38;6.20;99.90
9760;DHT22;4919;48.792;9.202;2023-02-01T14:40:26;6.30;99.90
9760;DHT22;4919;48.792;9.202;2023-02-01T14:43:12;6.30;99.90
9760;DHT22;4919;48.792;9.202;2023-02-01T14:45:56;6.30;99.90
9760;DHT22;4919;48.792;9.202;2023-02-01T14:48:44;6.20;99.90
9760;DHT22;4919;48.792;9.202;2023-02-01T14:51:30;6.40;99.90
9760;DHT22;4919;48.792;9.202;2023-02-01T14:54:15;6.30;99.90
9760;DHT22;4919;48.792;9.202;2023-02-01T14:57:03;6.40;99.90
9760;DHT22;4919;48.792;9.202;2023-02-01T14:59:49;6.30;99.90
9760;DHT22;4919;48.792;9.202;2023-02-01T15:02:39;6.30;99.90
9760;DHT22;4919;48.792;9.202;2023-02-01T15:05:29;6.30;99.90
9760;DHT22;4919;48.792;9.202;2023-02-01T15:08:18;6.40;99.90
9760;DHT22;4919;48.792;9.202;2023-02-01T15:11:08;6.20;99.90
9760;DHT22;4919;48.792;9.202;2023-02-01T15:13:55;5.70;99.90
9760;DHT22;4919;48.792;9.202;2023-02-01T15:16:42;5.40;99.90
9760;DHT22;4919;48.792;9.202;2023-02-01T15:19:29;5.20;99.90
9760;DHT22;4919;48.792;9.202;2023-02-01T15:22:18;4.80;99.90
9760;DHT22;4919;48.792;9.202;2023-02-01T15:25:04;4.70;99.90
9760;DHT22;4919;48.792;9.202;2023-02-01T15:27:48;4.50;99.90
9760;DHT22;4919;48.792;9.202;2023-02-01T15:30:35;4.50;99.90
9760;DHT22;4919;48.792;9.202;2023-02-01T15:33:19;4.40;99.90
9760;DHT22;4919;48.792;9.202;2023-02-01T15:36:10;4.20;99.90
9760;DHT22;4919;48.792;9.202;2023-02-01T15:42:12;4.00;99.90
9760;DHT22;4919;48.792;9.202;2023-02-01T15:44:57;3.90;99.90
9760;DHT22;4919;48.792;9.202;2023-02-01T15:47:50;3.90;99.90
9760;DHT22;4919;48.792;9.202;2023-02-01T15:50:39;3.80;99.90
9760;DHT22;4919;48.792;9.202;2023-02-01T15:53:25;3.80;99.90
9760;DHT22;4919;48.792;9.202;2023-02-01T15:56:10;3.70;99.90
9760;DHT22;4919;48.792;9.202;2023-02-01T15:58:58;3.70;99.90
9760;DHT22;4919;48.792;9.202;2023-02-01T16:01:43;3.70;99.90
9760;DHT22;4919;48.792;9.202;2023-02-01T16:04:29;3.70;99.90
9760;DHT22;4919;48.792;9.202;2023-02-01T16:07:29;3.70;99.90
9760;DHT22;4919;48.792;9.202;2023-02-01T16:10:25;3.70;99.90
9760;DHT22;4919;48.792;9.202;2023-02-01T16:13:10;3.70;99.90
9760;DHT22;4919;48.792;9.202;2023-02-01T16:15:55;3.70;99.90
9760;DHT22;4919;48.792;9.202;2023-02-01T16:18:40;3.60;99.90
9760;DHT22;4919;48.792;9.202;2023-02-01T16:21:25;3.00;99.90
9760;DHT22;4919;48.792;9.202;2023-02-01T16:24:10;2.90;99.90
9760;DHT22;4919;48.792;9.202;2023-02-01T16:26:55;2.80;99.90
9760;DHT22;4919;48.792;9.202;2023-02-01T16:29:40;2.70;99.90
9760;DHT22;4919;48.792;9.202;2023-02-01T16:32:25;2.60;99.90
9760;DHT22;4919;48.792;9.202;2023-02-01T16:35:25;2.50;99.90
9760;DHT22;4919;48.792;9.202;2023-02-01T16:38:18;2.40;99.90
9760;DHT22;4919;48.792;9.202;2023-02-01T16:41:04;2.60;99.90
9760;DHT22;4919;48.792;9.202;2023-02-01T16:43:51;2.50;99.90
9760;DHT22;4919;48.792;9.202;2023-02-01T16:46:39;2.40;99.90
9760;DHT22;4919;48.792;9.202;2023-02-01T16:49:25;2.50;99.90
9760;DHT22;4919;48.792;9.202;2023-02-01T16:52:21;2.50;99.90
9760;DHT22;4919;48.792;9.202;2023-02-01T16:55:12;2.40;99.90
9760;DHT22;4919;48.792;9.202;2023-02-01T16:57:57;2.40;99.90
9760;DHT22;4919;48.792;9.202;2023-02-01T17:00:42;2.40;99.90
9760;DHT22;4919;48.792;9.202;2023-02-01T17:03:27;2.50;99.90
9760;DHT22;4919;48.792;9.202;2023-02-01T17:06:16;2.60;99.90
9760;DHT22;4919;48.792;9.202;2023-02-01T17:09:02;2.60;99.90
9760;DHT22;4919;48.792;9.202;2023-02-01T17:11:47;2.60;99.90
9760;DHT22;4919;48.792;9.202;2023-02-01T17:14:35;2.70;99.90
9760;DHT22;4919;48.792;9.202;2023-02-01T17:17:22;2.70;99.90
9760;DHT22;4919;48.792;9.202;2023-02-01T17:20:20;2.80;99.90
9760;DHT22;4919;48.792;9.202;2023-02-01T17:23:06;2.80;99.90
9760;DHT22;4919;48.792;9.202;2023-02-01T17:25:51;2.80;99.90
9760;DHT22;4919;48.792;9.202;2023-02-01T17:28:36;2.80;99.90
9760;DHT22;4919;48.792;9.202;2023-02-01T17:31:21;2.90;99.90
9760;DHT22;4919;48.792;9.202;2023-02-01T17:34:06;3.00;99.90
9760;DHT22;4919;48.792;9.202;2023-02-01T17:36:52;3.00;99.90
9760;DHT22;4919;48.792;9.202;2023-02-01T17:39:37;3.00;99.90
9760;DHT22;4919;48.792;9.202;2023-02-01T17:42:23;3.10;99.90
9760;DHT22;4919;48.792;9.202;2023-02-01T17:45:18;3.10;99.90
9760;DHT22;4919;48.792;9.202;2023-02-01T17:48:04;3.20;99.90
9760;DHT22;4919;48.792;9.202;2023-02-01T17:50:50;3.20;99.90
9760;DHT22;4919;48.792;9.202;2023-02-01T17:53:35;3.20;99.90
9760;DHT22;4919;48.792;9.202;2023-02-01T17:56:22;3.30;99.90
9760;DHT22;4919;48.792;9.202;2023-02-01T17:59:06;3.30;99.90
9760;DHT22;4919;48.792;9.202;2023-02-01T18:01:51;3.30;99.90
9760;DHT22;4919;48.792;9.202;2023-02-01T18:04:36;3.30;99.90
9760;DHT22;4919;48.792;9.202;2023-02-01T18:07:21;3.40;99.90
9760;DHT22;4919;48.792;9.202;2023-02-01T18:10:07;3.30;99.90
9760;DHT22;4919;48.792;9.202;2023-02-01T18:12:53;3.40;99.90
9760;DHT22;4919;48.792;9.202;2023-02-01T18:15:38;3.40;99.90
9760;DHT22;4919;48.792;9.202;2023-02-01T18:18:22;3.40;99.90
9760;DHT22;4919;48.792;9.202;2023-02-01T18:21:08;3.50;99.90
9760;DHT22;4919;48.792;9.202;2023-02-01T18:23:53;3.50;99.90
9760;DHT22;4919;48.792;9.202;2023-02-01T18:26:38;3.60;99.90
9760;DHT22;4919;48.792;9.202;2023-02-01T18:29:23;3.60;99.90
9760;DHT22;4919;48.792;9.202;2023-02-01T18:32:09;3.60;99.90
9760;DHT22;4919;48.792;9.202;2023-02-01T18:34:54;3.60;99.90
9760;DHT22;4919;48.792;9.202;2023-02-01T18:37:39;3.70;99.90
9760;DHT22;4919;48.792;9.202;2023-02-01T18:40:29;3.60;99.90
9760;DHT22;4919;48.792;9.202;2023-02-01T18:43:14;3.70;99.90
9760;DHT22;4919;48.792;9.202;2023-02-01T18:45:59;3.60;99.90
9760;DHT22;4919;48.792;9.202;2023-02-01T18:48:44;3.70;99.90
9760;DHT22;4919;48.792;9.202;2023-02-01T18:51:29;3.70;99.90
9760;DHT22;4919;48.792;9.202;2023-02-01T18:54:14;3.70;99.90
9760;DHT22;4919;48.792;9.202;2023-02-01T18:56:59;3.70;99.90
9760;DHT22;4919;48.792;9.202;2023-02-01T18:59:43;3.70;99.90
9760;DHT22;4919;48.792;9.202;2023-02-01T19:02:28;3.70;99.90
9760;DHT22;4919;48.792;9.202;2023-02-01T19:05:14;3.80;99.90
9760;DHT22;4919;48.792;9.202;2023-02-01T19:07:59;3.80;99.90
9760;DHT22;4919;48.792;9.202;2023-02-01T19:10:44;3.80;99.90
9760;DHT22;4919;48.792;9.202;2023-02-01T19:13:28;3.80;99.90
9760;DHT22;4919;48.792;9.202;2023-02-01T19:16:13;3.90;99.90
9760;DHT22;4919;48.792;9.202;2023-02-01T19:18:58;3.90;99.90
9760;DHT22;4919;48.792;9.202;2023-02-01T19:21:43;3.90;99.90
9760;DHT22;4919;48.792;9.202;2023-02-01T19:24:28;3.90;99.90
9760;DHT22;4919;48.792;9.202;2023-02-01T19:27:13;3.90;99.90
9760;DHT22;4919;48.792;9.202;2023-02-01T19:29:58;4.00;99.90
9760;DHT22;4919;48.792;9.202;2023-02-01T19:32:43;4.00;99.90
9760;DHT22;4919;48.792;9.202;2023-02-01T19:35:29;4.10;99.90
9760;DHT22;4919;48.792;9.202;2023-02-01T19:38:14;4.00;99.90
9760;DHT22;4919;48.792;9.202;2023-02-01T19:40:59;4.00;99.90
9760;DHT22;4919;48.792;9.202;2023-02-01T19:43:44;4.00;99.90
9760;DHT22;4919;48.792;9.202;2023-02-01T19:46:29;4.00;99.90
9760;DHT22;4919;48.792;9.202;2023-02-01T19:49:14;4.10;99.90
9760;DHT22;4919;48.792;9.202;2023-02-01T19:51:59;4.10;99.90
9760;DHT22;4919;48.792;9.202;2023-02-01T19:54:44;4.00;99.90
9760;DHT22;4919;48.792;9.202;2023-02-01T19:57:30;4.00;99.90
9760;DHT22;4919;48.792;9.202;2023-02-01T20:00:15;4.00;99.90
9760;DHT22;4919;48.792;9.202;2023-02-01T20:03:00;4.00;99.90
9760;DHT22;4919;48.792;9.202;2023-02-01T20:05:45;3.90;99.90
9760;DHT22;4919;48.792;9.202;2023-02-01T20:08:30;4.00;99.90
9760;DHT22;4919;48.792;9.202;2023-02-01T20:11:15;3.90;99.90
9760;DHT22;4919;48.792;9.202;2023-02-01T20:14:00;3.90;99.90
9760;DHT22;4919;48.792;9.202;2023-02-01T20:16:44;3.90;99.90
9760;DHT22;4919;48.792;9.202;2023-02-01T20:19:30;4.00;99.90
9760;DHT22;4919;48.792;9.202;2023-02-01T20:22:14;4.00;99.90
9760;DHT22;4919;48.792;9.202;2023-02-01T20:24:59;4.10;99.90
9760;DHT22;4919;48.792;9.202;2023-02-01T20:27:44;4.00;99.90
9760;DHT22;4919;48.792;9.202;2023-02-01T20:30:29;4.00;99.90
9760;DHT22;4919;48.792;9.202;2023-02-01T20:33:14;3.90;99.90
9760;DHT22;4919;48.792;9.202;2023-02-01T20:35:59;4.00;99.90
9760;DHT22;4919;48.792;9.202;2023-02-01T20:38:44;3.90;99.90
9760;DHT22;4919;48.792;9.202;2023-02-01T20:41:29;3.90;99.90